EW9792 Weather Reports


Display with metric or nautical units.
time (UTC)temp
F
wind
direction
speed
MPH
gust
MPH
rain 1hr
in
rain 24hr
in
rain mn
in
humidity
%
barometer
mb
20200811071204 79 270 0.0 0.0 0.00 0.00 0.00 93 1016.0
20200811070204 79 225 0.0 0.0 0.00 0.00 0.00 92 1016.1
20200811065204 79 271 0.0 0.0 0.00 0.00 0.00 92 1016.3
20200811064205 79 262 0.0 0.0 0.00 0.00 0.00 92 1016.3
20200811063205 80 292 0.0 0.0 0.00 0.00 0.00 92 1016.4
20200811062205 80 306 0.0 0.0 0.00 0.00 0.00 91 1016.6
20200811061204 80 270 0.0 0.0 0.00 0.00 0.00 91 1016.5
20200811060205 80 270 0.0 0.0 0.00 0.00 0.00 91 1016.5
20200811055205 80 270 0.0 0.0 0.00 0.00 0.00 90 1016.3
20200811054206 80 153 0.0 0.0 0.00 0.00 0.00 90 1016.3
20200811053205 80 190 0.0 0.0 0.00 0.00 0.00 89 1016.5
20200811052205 80 168 0.0 0.0 0.00 0.00 0.00 89 1016.7
20200811051205 81 292 0.0 0.0 0.00 0.00 0.00 89 1016.8
20200811050205 81 55 0.0 0.0 0.00 0.00 0.00 89 1016.8
20200811045205 81 53 0.0 0.0 0.00 0.00 0.00 89 1016.9
20200811044205 81 55 0.0 0.0 0.00 0.00 0.00 89 1016.9
20200811043204 81 327 0.0 0.0 0.00 0.00 0.00 89 1017.0
20200811042205 81 22 0.0 0.0 0.00 0.00 0.00 88 1016.9
20200811041206 81 327 0.0 0.0 0.00 0.00 0.00 88 1017.0
20200811040205 81 90 0.0 0.0 0.00 0.00 0.00 88 1017.1
20200811035205 82 204 0.0 0.0 0.00 0.00 0.00 88 1017.2
20200811034205 82 347 0.0 0.0 0.00 0.00 0.00 88 1017.3
20200811033205 82 3 0.0 0.0 0.00 0.00 0.00 88 1017.3
20200811032205 82 22 0.0 0.0 0.00 0.00 0.00 87 1017.2
20200811031205 82 87 0.0 0.0 0.00 0.00 0.00 87 1017.2
20200811030205 82 276 0.0 0.0 0.00 0.00 0.00 87 1017.2
20200811025205 82 70 0.0 5.0 0.00 0.00 0.00 87 1017.2
20200811024205 82 56 3.0 6.0 0.00 0.00 0.00 87 1017.0
20200811023205 82 58 3.0 5.0 0.00 0.00 0.00 87 1017.1
20200811022205 82 22 0.0 0.0 0.00 0.00 0.00 87 1017.0
20200811021205 82 44 1.0 3.0 0.00 0.00 0.00 87 1017.0
20200811020205 82 63 0.0 0.0 0.00 0.00 0.00 86 1017.0
20200811015205 83 95 0.0 0.0 0.00 0.00 0.00 86 1017.0
20200811014205 83 91 0.0 2.0 0.00 0.00 0.00 85 1017.1
20200811013205 83 107 2.0 5.0 0.00 0.00 0.00 85 1017.1
20200811012205 83 68 1.0 5.0 0.00 0.00 0.00 85 1017.2
20200811011205 83 103 0.0 0.0 0.00 0.00 0.00 84 1017.2
20200811010205 83 52 0.0 3.0 0.00 0.00 0.00 84 1017.1
20200811005205 84 90 1.0 5.0 0.00 0.00 0.00 84 1017.1
20200811004205 84 90 5.0 6.0 0.00 0.00 0.00 84 1017.0
20200811003341 84 90 1.0 3.0 0.00 0.00 0.00 84 1016.8
20200811002400 84 96 4.0 6.0 0.00 0.00 0.00 84 1016.7
20200810235322 85 90 3.0 7.0 0.00 0.00 0.00 84 1016.7
20200810234416 85 60 2.0 7.0 0.00 0.00 0.00 83 1016.6
20200810233207 88 90 7.0 7.0 0.00 0.00 0.00 74 1016.4
20200810232309 88 90 7.0 7.0 0.00 0.00 0.00 74 1016.6
20200810231443 88 90 7.0 7.0 0.00 0.00 0.00 74 1016.7
20200810223557 88 22 6.0 6.0 0.00 0.00 0.00 74 1016.3
20200810222340 88 22 6.0 10.0 0.00 0.00 0.00 74 1016.4
20200810221224 87 45 10.0 10.0 0.00 0.00 0.00 76 1016.5
20200810214306 88 22 5.0 5.0 0.00 0.00 0.00 79 1016.8
20200810213205 88 22 5.0 5.0 0.00 0.00 0.00 79 1016.8
20200810212205 88 22 5.0 5.0 0.00 0.00 0.00 79 1016.9
20200810205205 88 22 5.0 15.0 0.00 0.00 0.00 79 1016.9
20200810204205 92 68 15.0 15.0 0.00 0.00 0.00 70 1017.2
20200810203205 92 68 15.0 15.0 0.00 0.00 0.00 70 1017.3
20200810202207 92 68 15.0 15.0 0.00 0.00 0.00 70 1017.5
20200810201206 92 68 15.0 15.0 0.00 0.00 0.00 70 1017.5
20200810200206 92 68 15.0 15.0 0.00 0.00 0.00 70 1017.6
20200810195205 92 68 15.0 15.0 0.00 0.00 0.00 70 1017.5
20200810194206 92 104 9.0 13.0 0.00 0.00 0.00 70 1017.6
20200810193206 93 50 9.0 13.0 0.00 0.00 0.00 68 1017.5
20200810192205 91 33 10.0 15.0 0.00 0.00 0.00 72 1017.7
20200810191205 91 72 11.0 15.0 0.00 0.00 0.00 71 1017.8
20200810190205 91 51 10.0 14.0 0.00 0.00 0.00 74 1017.9
20200810185205 92 45 10.0 14.0 0.00 0.00 0.00 74 1017.9
20200810184206 93 45 9.0 15.0 0.00 0.00 0.00 70 1018.1
20200810183209 92 57 12.0 17.0 0.00 0.00 0.00 70 1018.3
20200810182206 92 91 9.0 16.0 0.00 0.00 0.00 71 1018.4
20200810181206 92 85 8.0 14.0 0.00 0.00 0.00 71 1018.4
20200810180206 92 33 8.0 13.0 0.00 0.00 0.00 71 1018.5
20200810175205 91 94 9.0 14.0 0.00 0.00 0.00 71 1018.8
20200810174206 92 40 7.0 13.0 0.00 0.00 0.00 70 1018.7
20200810173206 93 79 8.0 13.0 0.00 0.00 0.00 71 1018.8
20200810172206 91 76 13.0 16.0 0.00 0.00 0.00 73 1018.9
20200810171207 93 112 12.0 15.0 0.00 0.00 0.00 70 1018.9
20200810170206 92 23 10.0 14.0 0.00 0.00 0.00 71 1018.9
20200810165206 93 73 9.0 15.0 0.00 0.00 0.00 69 1019.1
20200810164205 93 95 8.0 12.0 0.00 0.00 0.00 70 1019.1
20200810163337 93 81 10.0 15.0 0.00 0.00 0.00 70 1019.2
20200810162751 92 73 8.0 12.0 0.00 0.00 0.00 69 1019.2
20200810161441 93 84 7.0 13.0 0.00 0.00 0.00 68 1019.1
20200810160253 92 110 6.0 15.0 0.00 0.00 0.00 70 1019.1
20200810155222 93 82 9.0 15.0 0.00 0.00 0.00 68 1019.2
20200810152206 90 0 6.0 10.0 0.00 0.00 0.00 72 1019.1
20200810151205 91 67 4.0 9.0 0.00 0.00 0.00 72 1019.1
20200810144206 92 71 6.0 9.0 0.00 0.00 0.00 72 1019.1
20200810143206 92 36 5.0 9.0 0.00 0.00 0.00 71 1019.1
20200810142213 91 42 5.0 8.0 0.00 0.00 0.00 72 1019.0
20200810131217 88 347 3.0 6.0 0.00 0.00 0.00 78 1019.1
20200810125206 87 312 0.0 0.0 0.00 0.00 0.00 82 1018.9
20200810124206 87 35 1.0 5.0 0.00 0.00 0.00 81 1018.8
20200810121206 86 32 0.0 0.0 0.00 0.00 0.00 83 1018.6
20200810120206 86 138 0.0 0.0 0.00 0.00 0.00 84 1018.6
20200810115206 85 299 0.0 0.0 0.00 0.00 0.00 86 1018.6
20200810114206 83 257 0.0 0.0 0.00 0.00 0.00 89 1018.6
20200810113206 82 275 0.0 0.0 0.00 0.00 0.00 92 1018.6
20200810112206 81 337 0.0 0.0 0.00 0.00 0.00 96 1018.6
20200810111206 80 328 0.0 0.0 0.00 0.00 0.00 96 1018.5
20200810110205 79 281 0.0 0.0 0.00 0.00 0.00 95 1018.4
20200810105206 79 126 0.0 0.0 0.00 0.00 0.00 95 1018.3
20200810104205 79 205 0.0 0.0 0.00 0.00 0.00 95 1018.4
20200810103206 79 338 0.0 0.0 0.00 0.00 0.00 95 1018.4
20200810102213 80 292 0.0 0.0 0.00 0.00 0.00 95 1018.3
20200810100808 80 335 0.0 0.0 0.00 0.00 0.00 94 1018.2
20200810095206 80 9 0.0 0.0 0.00 0.00 0.00 94 1018.3
20200810094244 80 338 0.0 0.0 0.00 0.00 0.00 94 1018.3
20200810091207 80 304 0.0 0.0 0.00 0.00 0.00 94 1018.3
20200810090339 80 294 0.0 0.0 0.00 0.00 0.00 94 1018.3
20200810082206 80 180 0.0 0.0 0.00 0.00 0.00 93 1018.3
20200810081207 80 270 0.0 0.0 0.00 0.00 0.00 93 1018.3
20200810080225 80 281 0.0 0.0 0.00 0.00 0.00 93 1018.4
20200810075221 80 292 0.0 0.0 0.00 0.00 0.00 93 1018.4
20200810072207 80 313 0.0 0.0 0.00 0.00 0.00 92 1018.5